Time;durP1;ratioP1;P1;durP2;ratioP2;P2;SDS_P1;SDS_P2;PMS_P1;PMS_P2;Temp;Humidity;BMP_temperature;BMP_pressure;BME280_temperature;BME280_humidity;BME280_pressure;Samples;Min_cycle;Max_cycle;Signal;HPM_P1;HPM_P2
2020/12/16 00:02:18;;;;;;;6.27;4.50;;;8.30;99.90;;;;;;5093830;28;20453;-66
2020/12/16 00:04:45;;;;;;;4.75;3.83;;;8.20;99.90;;;;;;5093758;28;20445;-66
2020/12/16 00:07:10;;;;;;;6.13;4.30;;;8.20;99.90;;;;;;5093845;28;20237;-66
2020/12/16 00:09:36;;;;;;;5.07;4.00;;;8.10;99.90;;;;;;5093953;28;20397;-66
2020/12/16 00:12:01;;;;;;;10.50;4.63;;;8.10;99.90;;;;;;5093817;28;20155;-66
2020/12/16 00:14:27;;;;;;;7.90;4.67;;;8.10;99.90;;;;;;5093683;28;20188;-66
2020/12/16 00:16:54;;;;;;;4.97;4.10;;;8.10;99.90;;;;;;5093553;28;20172;-66
2020/12/16 00:19:19;;;;;;;4.30;3.90;;;8.20;99.90;;;;;;5093911;28;20230;-66
2020/12/16 00:21:45;;;;;;;6.30;3.83;;;8.20;99.90;;;;;;5093631;28;20806;-66
2020/12/16 00:24:11;;;;;;;6.40;4.47;;;8.40;99.90;;;;;;5093332;28;20245;-66
2020/12/16 00:26:36;;;;;;;4.63;4.20;;;8.40;99.90;;;;;;5093455;28;20168;-66
2020/12/16 00:29:02;;;;;;;4.73;4.00;;;8.40;99.90;;;;;;5094090;28;20169;-66
2020/12/16 00:31:27;;;;;;;6.70;4.67;;;8.40;99.90;;;;;;5093447;28;20195;-66
2020/12/16 00:33:53;;;;;;;5.00;4.07;;;8.40;99.90;;;;;;5093276;28;20217;-66
2020/12/16 00:36:18;;;;;;;8.70;6.70;;;8.50;99.90;;;;;;5095346;28;20178;-65
2020/12/16 00:38:45;;;;;;;8.23;5.50;;;8.50;99.90;;;;;;5094609;28;20171;-65
2020/12/16 00:41:11;;;;;;;6.93;4.80;;;8.50;99.90;;;;;;5094972;28;20193;-65
2020/12/16 00:43:36;;;;;;;9.17;5.30;;;8.50;99.90;;;;;;5093254;28;21033;-65
2020/12/16 00:46:02;;;;;;;5.77;5.27;;;8.40;99.90;;;;;;5091998;28;20168;-65
2020/12/16 00:48:28;;;;;;;6.10;4.80;;;8.50;99.90;;;;;;5093533;28;20164;-65
2020/12/16 00:50:53;;;;;;;5.93;5.00;;;8.50;99.90;;;;;;5093219;28;20771;-66
2020/12/16 00:53:19;;;;;;;13.80;5.23;;;8.60;99.90;;;;;;5093105;28;20675;-65
2020/12/16 00:55:44;;;;;;;8.73;5.93;;;8.80;99.90;;;;;;5093033;28;20662;-66
2020/12/16 00:58:10;;;;;;;6.93;5.47;;;8.90;99.90;;;;;;5093150;28;20635;-66
2020/12/16 01:00:35;;;;;;;9.47;5.77;;;8.90;99.90;;;;;;5093307;28;20167;-65
2020/12/16 01:03:02;;;;;;;6.20;5.60;;;8.90;99.90;;;;;;5092968;28;20199;-66
2020/12/16 01:05:27;;;;;;;6.83;5.97;;;8.80;99.90;;;;;;5092984;28;20159;-65
2020/12/16 01:07:53;;;;;;;6.10;5.50;;;8.90;99.90;;;;;;5093282;28;20901;-66
2020/12/16 01:10:18;;;;;;;7.00;5.73;;;8.90;99.90;;;;;;5093259;28;20167;-66
2020/12/16 01:12:47;;;;;;;6.70;5.90;;;8.90;99.90;;;;;;5093043;28;20202;-66
2020/12/16 01:15:16;;;;;;;8.40;5.87;;;8.90;99.90;;;;;;5093021;28;20194;-66
2020/12/16 01:17:43;;;;;;;6.30;5.53;;;8.80;99.90;;;;;;5092982;28;20509;-66
2020/12/16 01:20:09;;;;;;;6.87;5.80;;;8.80;99.90;;;;;;5092893;28;20878;-66
2020/12/16 01:22:46;;;;;;;6.73;5.27;;;8.80;99.90;;;;;;5092541;28;20449;-66
2020/12/16 01:25:12;;;;;;;6.17;5.40;;;8.80;99.90;;;;;;5093737;28;20429;-66
2020/12/16 01:27:38;;;;;;;7.73;6.13;;;8.80;99.90;;;;;;5093030;28;20394;-66
2020/12/16 01:30:08;;;;;;;7.00;6.27;;;8.80;99.90;;;;;;5092885;28;20785;-66
2020/12/16 01:32:36;;;;;;;8.20;5.87;;;8.80;99.90;;;;;;5092820;28;20508;-66
2020/12/16 01:35:06;;;;;;;13.50;7.00;;;8.80;99.90;;;;;;5092995;28;20397;-66
2020/12/16 01:37:32;;;;;;;8.07;5.77;;;8.80;99.90;;;;;;5093001;28;20539;-66
2020/12/16 01:39:58;;;;;;;8.30;6.47;;;8.70;99.90;;;;;;5092966;28;20872;-65
2020/12/16 01:42:24;;;;;;;6.97;5.97;;;8.90;99.90;;;;;;5092695;28;20882;-66
2020/12/16 01:44:49;;;;;;;9.40;7.57;;;8.80;99.90;;;;;;5092480;28;20271;-66
2020/12/16 01:47:17;;;;;;;7.63;6.03;;;8.90;99.90;;;;;;5092650;28;20168;-65
2020/12/16 01:49:42;;;;;;;9.67;6.70;;;8.90;99.90;;;;;;5092498;28;20163;-66
2020/12/16 01:52:13;;;;;;;8.40;6.63;;;8.90;99.90;;;;;;5092637;28;20753;-66
2020/12/16 01:54:39;;;;;;;7.47;6.70;;;8.80;99.90;;;;;;5095816;28;20159;-66
2020/12/16 01:57:05;;;;;;;8.07;6.63;;;8.90;99.90;;;;;;5096342;28;20437;-66
2020/12/16 01:59:35;;;;;;;8.80;7.17;;;8.90;99.90;;;;;;5096379;28;20440;-66
2020/12/16 02:02:02;;;;;;;8.30;7.33;;;8.80;99.90;;;;;;5096193;28;20168;-66
2020/12/16 02:04:34;;;;;;;8.47;6.80;;;8.90;99.90;;;;;;5096088;28;20474;-66
2020/12/16 02:07:05;;;;;;;7.57;5.90;;;8.90;99.90;;;;;;5096400;28;20392;-66
2020/12/16 02:09:38;;;;;;;9.00;5.90;;;8.80;99.90;;;;;;5096173;28;20378;-66
2020/12/16 02:12:20;;;;;;;9.40;6.53;;;9.00;99.90;;;;;;5096143;28;20473;-66
2020/12/16 02:14:45;;;;;;;8.50;7.60;;;9.10;99.90;;;;;;5096023;28;20459;-66
2020/12/16 02:17:12;;;;;;;8.73;7.30;;;9.00;99.90;;;;;;5096313;28;20850;-64
2020/12/16 02:19:40;;;;;;;11.67;7.40;;;8.90;99.90;;;;;;5095962;28;20219;-66
2020/12/16 02:22:06;;;;;;;11.10;7.70;;;9.00;99.90;;;;;;5094899;28;20448;-66
2020/12/16 02:24:33;;;;;;;8.97;7.93;;;9.10;99.90;;;;;;5095611;28;20474;-66
2020/12/16 02:26:59;;;;;;;8.03;7.03;;;9.20;99.90;;;;;;5095869;28;20456;-66
2020/12/16 02:29:25;;;;;;;7.77;6.43;;;9.20;99.90;;;;;;5095761;28;20889;-66
2020/12/16 02:31:53;;;;;;;9.23;7.20;;;9.20;99.90;;;;;;5095756;28;20379;-66
2020/12/16 02:34:19;;;;;;;8.00;7.20;;;9.10;99.90;;;;;;5095619;28;20426;-66
2020/12/16 02:36:45;;;;;;;8.90;7.50;;;9.10;99.90;;;;;;5095577;28;20409;-66
2020/12/16 02:39:11;;;;;;;7.93;7.13;;;9.20;99.90;;;;;;5096538;28;20425;-66
2020/12/16 02:41:36;;;;;;;8.20;6.47;;;9.20;99.90;;;;;;5095556;28;20438;-66
2020/12/16 02:44:02;;;;;;;8.80;7.50;;;9.10;99.90;;;;;;5095328;28;20199;-66
2020/12/16 02:46:27;;;;;;;10.93;8.33;;;9.00;99.90;;;;;;5095442;28;20620;-66
2020/12/16 02:48:53;;;;;;;10.00;7.93;;;9.00;99.90;;;;;;5095306;28;20166;-66
2020/12/16 02:51:18;;;;;;;10.07;8.07;;;8.90;99.90;;;;;;5094089;28;20266;-66
2020/12/16 02:53:44;;;;;;;11.03;8.37;;;8.90;99.90;;;;;;5095483;28;20199;-66
2020/12/16 02:56:09;;;;;;;11.03;8.30;;;8.90;99.90;;;;;;5095244;28;20163;-66
2020/12/16 02:58:42;;;;;;;10.67;8.20;;;8.90;99.90;;;;;;5095460;28;20254;-66
2020/12/16 03:01:07;;;;;;;9.90;7.77;;;8.90;99.90;;;;;;5095231;28;20155;-66
2020/12/16 03:03:33;;;;;;;8.87;7.50;;;9.00;99.90;;;;;;5094822;28;20457;-66
2020/12/16 03:05:58;;;;;;;9.43;7.60;;;9.10;99.90;;;;;;5094992;28;20580;-66
2020/12/16 03:08:24;;;;;;;10.50;7.13;;;9.00;99.90;;;;;;5094987;28;20517;-66
2020/12/16 03:10:50;;;;;;;7.93;7.13;;;9.00;99.90;;;;;;5095018;28;20703;-66
2020/12/16 03:13:15;;;;;;;11.50;7.80;;;8.90;99.90;;;;;;5095164;28;20662;-66
2020/12/16 03:15:41;;;;;;;9.67;7.87;;;8.80;99.90;;;;;;5094918;28;20195;-66
2020/12/16 03:18:06;;;;;;;11.50;8.70;;;8.80;99.90;;;;;;5095018;28;20509;-66
2020/12/16 03:20:32;;;;;;;11.27;7.70;;;8.80;99.90;;;;;;5095138;28;20167;-66
2020/12/16 03:22:57;;;;;;;12.07;8.90;;;8.70;99.90;;;;;;5094433;28;20211;-67
2020/12/16 03:25:23;;;;;;;12.87;7.93;;;8.90;99.90;;;;;;5094681;28;20165;-67
2020/12/16 03:27:48;;;;;;;10.63;8.90;;;8.90;99.90;;;;;;5094727;28;20172;-67
2020/12/16 03:30:14;;;;;;;9.00;7.73;;;8.90;99.90;;;;;;5094632;28;20200;-67
2020/12/16 03:32:39;;;;;;;11.27;8.20;;;8.90;99.90;;;;;;5094946;28;20263;-67
2020/12/16 03:35:05;;;;;;;12.93;9.03;;;8.70;99.90;;;;;;5094586;28;20193;-67
2020/12/16 03:37:30;;;;;;;12.37;8.67;;;8.80;99.90;;;;;;5094657;28;20168;-67
2020/12/16 03:39:56;;;;;;;9.70;7.53;;;8.80;99.90;;;;;;5094359;28;20230;-67
2020/12/16 03:42:21;;;;;;;14.10;8.03;;;8.80;99.90;;;;;;5094277;28;20682;-67
2020/12/16 03:44:47;;;;;;;10.27;7.13;;;8.70;99.90;;;;;;5094277;28;20194;-67
2020/12/16 03:47:15;;;;;;;11.23;8.07;;;8.50;99.90;;;;;;5094153;28;20205;-67
2020/12/16 03:49:40;;;;;;;11.00;7.93;;;8.70;99.90;;;;;;5094451;28;20168;-67
2020/12/16 03:52:06;;;;;;;10.17;8.17;;;8.60;99.90;;;;;;5094443;28;20479;-67
2020/12/16 03:54:31;;;;;;;10.60;8.00;;;8.70;99.90;;;;;;5094080;28;20195;-67
2020/12/16 03:56:57;;;;;;;10.50;7.80;;;8.60;99.90;;;;;;5092833;28;20203;-67
2020/12/16 03:59:22;;;;;;;9.20;7.70;;;8.60;99.90;;;;;;5094245;28;20175;-67
2020/12/16 04:01:50;;;;;;;9.83;7.80;;;8.60;99.90;;;;;;5094105;28;20540;-67
2020/12/16 04:04:16;;;;;;;9.53;7.30;;;8.50;99.90;;;;;;5093608;28;20201;-67
2020/12/16 04:06:42;;;;;;;14.40;8.40;;;8.60;99.90;;;;;;5093863;28;20409;-67
2020/12/16 04:09:07;;;;;;;9.90;7.60;;;8.80;99.90;;;;;;5094058;28;20163;-67
2020/12/16 04:11:33;;;;;;;8.23;7.33;;;8.80;99.90;;;;;;5094067;28;20168;-67
2020/12/16 04:13:58;;;;;;;10.33;8.93;;;8.70;99.90;;;;;;5092331;28;20604;-67
2020/12/16 04:16:24;;;;;;;10.23;7.80;;;8.50;99.90;;;;;;5093236;28;20211;-67
2020/12/16 04:18:50;;;;;;;11.53;8.30;;;8.60;99.90;;;;;;5093694;28;20220;-67
2020/12/16 04:21:19;;;;;;;10.73;8.80;;;8.50;99.90;;;;;;5093747;28;20908;-67
2020/12/16 04:23:45;;;;;;;9.37;7.37;;;8.50;99.90;;;;;;5093280;28;20492;-67
2020/12/16 04:26:10;;;;;;;9.10;7.03;;;8.30;99.90;;;;;;5093429;28;20404;-67
2020/12/16 04:28:36;;;;;;;9.70;7.90;;;8.40;99.90;;;;;;5093903;28;20395;-67
2020/12/16 04:31:04;;;;;;;9.20;7.50;;;8.50;99.90;;;;;;5093751;28;20164;-67
2020/12/16 04:33:30;;;;;;;10.27;8.00;;;8.50;99.90;;;;;;5093313;28;20422;-67
2020/12/16 04:35:56;;;;;;;8.77;7.40;;;8.40;99.90;;;;;;5093415;28;20407;-67
2020/12/16 04:38:21;;;;;;;9.07;7.80;;;8.40;99.90;;;;;;5093676;28;20171;-67
2020/12/16 04:40:47;;;;;;;9.00;7.40;;;8.60;99.90;;;;;;5093268;28;20724;-67
2020/12/16 04:43:23;;;;;;;13.07;8.50;;;8.70;99.90;;;;;;5093275;28;20206;-67
2020/12/16 04:45:49;;;;;;;13.07;8.80;;;9.00;99.90;;;;;;5093225;28;20170;-67
2020/12/16 04:48:16;;;;;;;9.33;8.10;;;9.00;89.90;;;;;;5093193;28;20814;-67
2020/12/16 04:50:43;;;;;;;9.20;7.30;;;8.80;53.10;;;;;;5091935;28;20437;-67
2020/12/16 04:53:13;;;;;;;10.83;8.10;;;8.70;99.90;;;;;;5093032;28;20476;-66
2020/12/16 04:55:40;;;;;;;11.00;7.20;;;8.50;99.90;;;;;;5093240;28;20443;-67
2020/12/16 04:58:07;;;;;;;9.20;7.20;;;8.60;99.90;;;;;;5093044;28;20409;-67
2020/12/16 05:00:34;;;;;;;10.70;8.07;;;8.70;99.90;;;;;;5092907;28;20404;-67
2020/12/16 05:03:02;;;;;;;10.47;6.90;;;8.50;99.90;;;;;;5092736;28;20520;-67
2020/12/16 05:05:28;;;;;;;10.10;7.50;;;8.60;99.90;;;;;;5093211;28;20409;-67
2020/12/16 05:07:54;;;;;;;10.00;7.70;;;8.50;99.90;;;;;;5092964;28;20401;-67
2020/12/16 05:10:32;;;;;;;11.35;7.63;;;8.50;99.90;;;;;;5092852;28;20489;-67
2020/12/16 05:13:08;;;;;;;9.83;7.77;;;8.50;99.90;;;;;;5092842;28;20191;-67
2020/12/16 05:15:35;;;;;;;8.97;7.40;;;8.60;99.90;;;;;;5092939;28;20390;-67
2020/12/16 05:18:05;;;;;;;8.20;7.17;;;8.50;99.90;;;;;;5092788;28;20460;-67
2020/12/16 05:20:31;;;;;;;8.07;7.00;;;8.40;99.90;;;;;;5092942;28;20425;-67
2020/12/16 05:23:01;;;;;;;12.63;8.33;;;8.40;99.90;;;;;;5117728;22;20485;-66
2020/12/16 05:25:27;;;;;;;10.20;8.53;;;8.40;99.90;;;;;;5092262;28;20251;-66
2020/12/16 05:27:53;;;;;;;11.03;7.97;;;8.30;99.90;;;;;;5094182;28;20403;-66
2020/12/16 05:30:18;;;;;;;9.23;7.17;;;8.30;99.90;;;;;;5098069;28;20408;-67
2020/12/16 05:32:45;;;;;;;12.73;8.13;;;8.40;99.90;;;;;;5098335;28;20167;-66
2020/12/16 05:35:37;;;;;;;9.63;7.90;;;8.50;99.90;;;;;;5096074;28;20194;-66
2020/12/16 05:38:07;;;;;;;9.83;7.50;;;8.70;99.90;;;;;;5097472;28;20387;-66
2020/12/16 05:40:38;;;;;;;10.00;7.23;;;8.80;99.90;;;;;;5097774;28;20433;-66
2020/12/16 05:43:04;;;;;;;10.40;8.27;;;8.80;99.90;;;;;;5098568;28;20448;-66
2020/12/16 05:45:35;;;;;;;9.90;7.93;;;8.80;99.90;;;;;;5098501;28;20457;-66
2020/12/16 05:48:11;;;;;;;8.80;7.90;;;8.70;99.90;;;;;;5098177;28;20466;-65
2020/12/16 05:50:40;;;;;;;12.40;8.23;;;8.90;99.90;;;;;;5097596;28;20450;-66
2020/12/16 05:53:15;;;;;;;11.27;8.20;;;8.90;99.90;;;;;;5097946;28;20426;-65
2020/12/16 05:55:41;;;;;;;9.17;8.17;;;9.00;29.20;;;;;;5097474;28;20439;-66
2020/12/16 05:58:09;;;;;;;8.80;7.50;;;9.00;1.00;;;;;;5096635;28;20493;-66
2020/12/16 06:00:55;;;;;;;8.77;7.30;;;8.90;1.00;;;;;;5097684;28;20414;-66
2020/12/16 06:03:40;;;;;;;9.30;7.77;;;8.80;1.00;;;;;;5097757;28;20467;-66
2020/12/16 06:06:06;;;;;;;8.90;7.93;;;8.90;51.70;;;;;;5097298;28;20409;-66
2020/12/16 06:08:36;;;;;;;11.70;8.77;;;9.10;1.20;;;;;;5097113;28;20425;-66
2020/12/16 06:11:06;;;;;;;11.00;7.83;;;9.00;1.00;;;;;;5097374;28;20394;-65
2020/12/16 06:13:33;;;;;;;8.83;7.70;;;9.20;1.00;;;;;;5096704;28;20418;-66
2020/12/16 06:16:08;;;;;;;9.97;6.83;;;9.30;1.00;;;;;;5096872;28;20427;-65
2020/12/16 06:18:38;;;;;;;9.70;7.40;;;9.30;1.00;;;;;;5095491;28;20520;-65
2020/12/16 06:21:08;;;;;;;10.57;6.70;;;9.50;1.00;;;;;;5097184;28;20382;-63
2020/12/16 06:23:41;;;;;;;8.83;5.63;;;9.40;99.90;;;;;;5096786;28;20438;-65
2020/12/16 06:26:13;;;;;;;6.30;5.30;;;9.40;99.90;;;;;;5095405;28;20394;-65
2020/12/16 06:28:39;;;;;;;8.23;6.30;;;9.50;99.90;;;;;;5095644;28;20412;-65
2020/12/16 06:31:31;;;;;;;6.83;5.90;;;9.50;60.20;;;;;;5095223;28;20395;-65
2020/12/16 06:34:02;;;;;;;7.67;5.53;;;9.50;99.90;;;;;;5096401;28;20425;-65
2020/12/16 06:36:32;;;;;;;8.70;5.80;;;9.50;1.00;;;;;;5094437;28;20458;-65
2020/12/16 06:38:59;;;;;;;8.07;6.70;;;9.50;1.00;;;;;;5094758;28;20482;-65
2020/12/16 06:41:30;;;;;;;7.03;6.07;;;9.50;99.90;;;;;;5096186;28;20406;-65
2020/12/16 06:43:57;;;;;;;7.20;6.50;;;9.40;1.00;;;;;;5094689;28;20500;-64
2020/12/16 06:46:30;;;;;;;8.60;6.50;;;9.40;1.00;;;;;;5094744;28;20405;-65
2020/12/16 06:48:56;;;;;;;8.80;6.60;;;9.30;1.00;;;;;;5095068;28;20449;-64
2020/12/16 06:51:24;;;;;;;8.40;5.87;;;9.30;99.90;;;;;;5095823;28;20427;-64
2020/12/16 06:54:04;;;;;;;7.37;6.00;;;9.40;56.10;;;;;;5095716;28;20436;-64
2020/12/16 06:56:30;;;;;;;10.40;7.43;;;9.40;99.90;;;;;;5095321;28;20451;-65
2020/12/16 06:58:55;;;;;;;10.70;6.37;;;9.40;99.90;;;;;;5095312;28;20439;-65
2020/12/16 07:01:22;;;;;;;11.43;6.80;;;9.40;1.00;;;;;;5095462;28;20172;-65
2020/12/16 07:03:47;;;;;;;10.40;6.93;;;9.30;99.90;;;;;;5094438;28;20203;-65
2020/12/16 07:06:28;;;;;;;8.50;6.50;;;9.20;1.00;;;;;;5093639;28;20417;-65
2020/12/16 07:09:13;;;;;;;8.87;7.30;;;8.90;3.70;;;;;;5094347;28;20231;-65
2020/12/16 07:11:45;;;;;;;9.37;7.60;;;8.70;1.00;;;;;;5095390;28;20405;-65
2020/12/16 07:14:16;;;;;;;7.90;5.60;;;8.60;1.00;;;;;;5094202;28;20433;-67
2020/12/16 07:16:43;;;;;;;7.50;5.50;;;8.40;1.00;;;;;;5093852;28;20440;-67
2020/12/16 07:19:09;;;;;;;7.00;6.07;;;8.40;46.80;;;;;;5093382;28;20413;-66
2020/12/16 07:21:38;;;;;;;6.77;5.53;;;8.40;89.80;;;;;;5094421;28;20424;-65
2020/12/16 07:24:14;;;;;;;8.57;5.30;;;8.50;92.30;;;;;;5093524;28;20454;-67
2020/12/16 07:26:43;;;;;;;7.00;5.87;;;8.50;45.60;;;;;;5092060;28;20400;-65
2020/12/16 07:29:36;;;;;;;8.13;6.33;;;8.50;1.00;;;;;;5092690;28;20389;-67
2020/12/16 07:32:10;;;;;;;7.60;6.17;;;8.60;1.00;;;;;;5092276;28;20394;-64
2020/12/16 07:34:49;;;;;;;10.93;5.83;;;8.60;1.00;;;;;;5092736;28;20430;-66
2020/12/16 07:37:17;;;;;;;6.50;5.60;;;8.40;1.00;;;;;;5092493;28;20386;-67
2020/12/16 07:39:51;;;;;;;6.63;5.97;;;8.30;1.00;;;;;;5091441;28;20391;-65
2020/12/16 07:42:23;;;;;;;7.73;6.50;;;8.30;19.20;;;;;;5092016;28;20423;-66
2020/12/16 07:44:48;;;;;;;9.93;7.07;;;8.60;36.90;;;;;;5092304;28;20458;-66
2020/12/16 07:47:18;;;;;;;9.37;6.80;;;8.90;1.00;;;;;;5091524;28;20437;-66
2020/12/16 07:49:45;;;;;;;7.97;6.80;;;8.80;99.90;;;;;;5092757;28;20172;-66
2020/12/16 07:52:11;;;;;;;13.43;7.37;;;9.00;99.90;;;;;;5093135;28;20409;-66
2020/12/16 07:54:37;;;;;;;7.97;7.10;;;8.80;1.00;;;;;;5092501;28;20502;-65
2020/12/16 07:57:03;;;;;;;6.77;5.53;;;8.80;99.90;;;;;;5092896;28;20410;-66
2020/12/16 07:59:34;;;;;;;11.20;7.60;;;8.90;16.50;;;;;;5093266;28;20173;-65
2020/12/16 08:02:11;;;;;;;9.37;7.70;;;8.90;1.00;;;;;;5094882;28;20393;-66
2020/12/16 08:04:38;;;;;;;7.27;6.07;;;8.70;99.90;;;;;;5092469;28;20462;-65
2020/12/16 08:07:18;;;;;;;8.43;6.87;;;8.80;1.00;;;;;;5092069;28;20416;-66
2020/12/16 08:10:00;;;;;;;7.63;6.43;;;8.60;1.00;;;;;;5092885;28;20385;-65
2020/12/16 08:12:28;;;;;;;8.37;6.30;;;8.60;99.90;;;;;;5093127;28;20354;-66
2020/12/16 08:15:23;;;;;;;9.53;6.13;;;8.90;1.00;;;;;;5093451;28;20425;-66
2020/12/16 08:17:51;;;;;;;6.80;6.10;;;8.50;99.90;;;;;;5084640;28;20433;-66
2020/12/16 08:20:21;;;;;;;7.03;5.50;;;8.40;1.00;;;;;;5091826;28;20459;-66
2020/12/16 08:22:48;;;;;;;10.67;6.87;;;8.70;99.90;;;;;;5093581;28;20404;-66
2020/12/16 08:25:16;;;;;;;7.63;5.43;;;8.90;99.90;;;;;;5092332;28;20517;-66
2020/12/16 08:27:51;;;;;;;9.00;6.07;;;8.80;1.00;;;;;;5091998;28;20483;-66
2020/12/16 08:30:19;;;;;;;9.63;5.73;;;8.70;99.90;;;;;;5093683;28;20391;-66
2020/12/16 08:32:59;;;;;;;9.17;5.83;;;8.80;52.10;;;;;;5091924;28;20414;-65
2020/12/16 08:35:29;;;;;;;7.40;6.13;;;9.00;15.20;;;;;;5091547;28;20427;-65
2020/12/16 08:37:59;;;;;;;9.47;7.50;;;9.00;1.00;;;;;;5091626;28;20401;-65
2020/12/16 08:40:25;;;;;;;8.90;6.80;;;8.90;99.90;;;;;;5092119;28;20395;-66
2020/12/16 08:42:51;;;;;;;8.00;6.80;;;8.70;99.90;;;;;;5092242;28;20402;-66
2020/12/16 08:45:18;;;;;;;6.53;5.77;;;8.70;99.90;;;;;;5092301;28;20414;-64
2020/12/16 08:47:44;;;;;;;7.60;6.73;;;8.80;99.90;;;;;;5091821;28;20192;-65
2020/12/16 08:50:17;;;;;;;7.60;6.50;;;8.80;99.90;;;;;;5090728;28;20402;-66
2020/12/16 08:52:45;;;;;;;7.50;5.80;;;8.80;1.00;;;;;;5091511;28;20229;-66
2020/12/16 08:55:21;;;;;;;8.60;6.67;;;8.80;38.80;;;;;;5090931;28;20431;-66
2020/12/16 08:57:59;;;;;;;8.07;6.60;;;8.80;99.90;;;;;;5090578;28;20875;-66
2020/12/16 09:00:31;;;;;;;6.90;6.10;;;9.00;1.00;;;;;;5091460;28;20394;-66
2020/12/16 09:03:09;;;;;;;8.00;7.00;;;9.00;1.00;;;;;;5089362;28;20399;-66
2020/12/16 09:05:39;;;;;;;7.50;5.77;;;9.20;99.90;;;;;;5088858;28;20352;-65
2020/12/16 09:08:15;;;;;;;7.57;5.47;;;9.20;1.00;;;;;;5083471;28;20406;-68
2020/12/16 09:10:42;;;;;;;9.73;5.60;;;9.30;1.00;;;;;;5073393;28;20409;-69
2020/12/16 09:13:10;;;;;;;7.37;5.67;;;9.70;63.10;;;;;;5075109;28;20480;-69
2020/12/16 09:15:36;;;;;;;7.83;6.60;;;9.50;1.00;;;;;;5078152;28;20857;-68
2020/12/16 09:18:02;;;;;;;7.30;5.93;;;9.40;1.00;;;;;;5082671;28;20423;-66
2020/12/16 09:20:30;;;;;;;8.07;6.07;;;9.40;99.90;;;;;;5077329;28;20452;-66
2020/12/16 09:22:56;;;;;;;8.07;6.57;;;10.20;99.90;;;;;;5074553;28;20398;-67
2020/12/16 09:25:21;;;;;;;7.30;5.83;;;9.60;99.90;;;;;;5074951;28;20403;-66
2020/12/16 09:27:58;;;;;;;7.70;6.47;;;9.70;1.00;;;;;;5075926;28;20414;-67
2020/12/16 09:30:29;;;;;;;10.47;8.80;;;9.70;99.90;;;;;;5075901;28;20543;-67
2020/12/16 09:32:55;;;;;;;7.47;5.57;;;9.60;99.90;;;;;;5075368;28;20402;-66
2020/12/16 09:35:23;;;;;;;9.67;6.97;;;9.70;1.00;;;;;;5074870;28;20403;-67
2020/12/16 09:37:48;;;;;;;6.93;6.23;;;9.80;99.90;;;;;;5074971;28;20919;-66
2020/12/16 09:40:15;;;;;;;8.50;5.80;;;9.80;99.90;;;;;;5075636;28;20415;-67
2020/12/16 09:43:02;;;;;;;8.77;6.43;;;9.70;99.90;;;;;;5075289;28;20174;-67
2020/12/16 09:45:31;;;;;;;7.67;5.60;;;10.00;99.90;;;;;;5075337;28;20886;-66
2020/12/16 09:47:59;;;;;;;12.90;10.13;;;10.10;99.90;;;;;;5075172;28;20458;-67
2020/12/16 09:50:27;;;;;;;7.97;6.67;;;10.10;99.90;;;;;;5074212;28;20754;-67
2020/12/16 09:52:57;;;;;;;7.60;6.23;;;10.20;1.00;;;;;;5074433;28;20399;-66
2020/12/16 09:55:23;;;;;;;10.33;7.80;;;10.10;87.60;;;;;;5074486;28;20822;-67
2020/12/16 09:58:06;;;;;;;8.87;6.83;;;10.50;1.00;;;;;;5074040;28;20433;-67
2020/12/16 10:00:33;;;;;;;9.33;7.13;;;10.80;1.00;;;;;;5073657;28;20167;-66
2020/12/16 10:03:05;;;;;;;8.77;6.80;;;10.80;1.00;;;;;;5073565;28;20473;-66
2020/12/16 10:05:34;;;;;;;8.87;6.40;;;11.00;1.00;;;;;;5073499;28;20482;-67
2020/12/16 10:08:00;;;;;;;8.90;6.30;;;11.30;99.90;;;;;;5076267;28;20805;-67
2020/12/16 10:10:30;;;;;;;9.13;5.67;;;11.80;99.90;;;;;;5076038;28;20401;-66
2020/12/16 10:12:56;;;;;;;10.17;7.43;;;12.00;99.90;;;;;;5076668;28;20190;-67
2020/12/16 10:15:22;;;;;;;8.73;4.80;;;12.30;99.90;;;;;;5077800;28;20402;-67
2020/12/16 10:17:47;;;;;;;8.23;5.57;;;12.40;99.90;;;;;;5078628;28;20402;-67
2020/12/16 10:20:13;;;;;;;6.60;5.30;;;12.40;99.90;;;;;;5079090;28;20405;-67
2020/12/16 10:22:54;;;;;;;7.10;6.10;;;12.30;99.90;;;;;;5055709;28;20283;-66
2020/12/16 10:25:21;;;;;;;9.70;7.70;;;12.50;99.90;;;;;;5077679;28;20419;-67
2020/12/16 10:27:47;;;;;;;7.90;6.97;;;12.40;99.90;;;;;;5078779;28;20168;-67
2020/12/16 10:30:12;;;;;;;10.00;8.23;;;12.40;99.90;;;;;;5079820;28;20428;-67
2020/12/16 10:32:39;;;;;;;8.13;5.83;;;12.70;99.90;;;;;;5079179;28;20176;-67
2020/12/16 10:35:05;;;;;;;12.13;7.90;;;12.90;99.90;;;;;;5078728;28;20548;-67
2020/12/16 10:37:33;;;;;;;8.20;4.97;;;13.10;99.90;;;;;;5077686;28;20402;-67
2020/12/16 10:39:58;;;;;;;6.53;5.83;;;13.30;99.90;;;;;;5078947;28;20911;-67
2020/12/16 10:42:24;;;;;;;6.40;5.40;;;13.50;99.90;;;;;;5079463;28;20414;-67
2020/12/16 10:44:50;;;;;;;5.17;4.67;;;13.70;99.90;;;;;;5078425;28;20326;-67
2020/12/16 10:47:16;;;;;;;11.87;6.57;;;13.60;97.70;;;;;;5077769;28;20176;-67
2020/12/16 10:49:42;;;;;;;6.20;5.60;;;13.60;99.20;;;;;;5077767;28;20408;-67
2020/12/16 10:52:10;;;;;;;5.27;4.77;;;13.80;99.90;;;;;;5079067;28;20887;-66
2020/12/16 10:54:36;;;;;;;6.07;5.47;;;13.90;90.00;;;;;;5078201;28;20426;-67
2020/12/16 10:57:03;;;;;;;5.37;4.87;;;13.90;72.40;;;;;;5078141;28;20414;-66
2020/12/16 10:59:29;;;;;;;7.80;5.83;;;13.90;75.50;;;;;;5079813;28;20407;-67
2020/12/16 11:01:58;;;;;;;7.73;5.60;;;13.80;99.90;;;;;;5079223;28;20488;-67
2020/12/16 11:04:25;;;;;;;5.63;4.50;;;14.20;72.30;;;;;;5078783;28;20462;-67
2020/12/16 11:06:51;;;;;;;5.83;5.20;;;14.40;55.10;;;;;;5078607;28;20407;-67
2020/12/16 11:09:18;;;;;;;5.10;4.60;;;14.40;55.70;;;;;;5078326;28;20494;-67
2020/12/16 11:11:45;;;;;;;4.93;4.43;;;14.80;22.60;;;;;;5077601;28;20410;-67
2020/12/16 11:14:11;;;;;;;7.97;5.40;;;14.80;30.30;;;;;;5077960;28;20428;-67
2020/12/16 11:16:37;;;;;;;5.67;5.17;;;14.80;28.60;;;;;;5077962;28;20722;-67
2020/12/16 11:19:03;;;;;;;6.20;5.60;;;14.80;27.50;;;;;;5078074;28;20208;-67
2020/12/16 11:21:36;;;;;;;5.00;4.40;;;15.00;13.30;;;;;;5080233;28;20260;-67
2020/12/16 11:24:02;;;;;;;4.70;4.03;;;14.80;14.30;;;;;;5106568;22;20505;-65
2020/12/16 11:26:27;;;;;;;5.63;5.10;;;14.90;6.30;;;;;;5095203;28;20432;-66
2020/12/16 11:28:53;;;;;;;5.37;4.87;;;14.70;14.20;;;;;;5094525;28;20164;-66
2020/12/16 11:31:18;;;;;;;5.50;4.40;;;14.60;13.60;;;;;;5093352;28;20198;-66
2020/12/16 11:33:44;;;;;;;5.93;5.20;;;14.40;23.50;;;;;;5094862;28;20569;-65
2020/12/16 11:36:10;;;;;;;7.10;4.67;;;14.00;55.10;;;;;;5098787;28;20534;-65
2020/12/16 11:38:36;;;;;;;6.00;5.37;;;14.10;71.90;;;;;;5094505;28;20176;-65
2020/12/16 11:41:03;;;;;;;6.20;5.60;;;13.80;74.40;;;;;;5094531;28;20399;-66
2020/12/16 11:43:29;;;;;;;6.00;5.40;;;13.80;99.90;;;;;;5096088;28;20470;-66
2020/12/16 11:45:55;;;;;;;5.70;4.77;;;13.80;99.90;;;;;;5096755;28;20918;-66
2020/12/16 11:48:21;;;;;;;6.40;4.83;;;13.80;99.90;;;;;;5094303;28;20438;-66
2020/12/16 11:50:47;;;;;;;5.13;4.73;;;13.80;99.90;;;;;;5094818;28;20428;-67
2020/12/16 11:53:13;;;;;;;5.90;5.20;;;13.70;99.90;;;;;;5093871;28;20172;-65
2020/12/16 11:55:39;;;;;;;5.67;5.10;;;13.60;99.90;;;;;;5094035;28;20426;-66
2020/12/16 11:58:05;;;;;;;5.40;4.77;;;13.60;99.90;;;;;;5094212;28;20403;-66
2020/12/16 12:00:31;;;;;;;6.60;5.40;;;13.40;99.90;;;;;;5094525;28;20159;-66
2020/12/16 12:02:56;;;;;;;7.80;6.10;;;13.20;99.90;;;;;;5093637;28;20972;-67
2020/12/16 12:05:22;;;;;;;6.67;5.80;;;13.10;99.90;;;;;;5094732;28;20190;-66
2020/12/16 12:07:47;;;;;;;5.63;5.03;;;13.00;99.90;;;;;;5094022;28;20247;-66
2020/12/16 12:10:13;;;;;;;10.83;5.90;;;12.80;99.90;;;;;;5093771;28;20627;-66
2020/12/16 12:12:38;;;;;;;8.93;5.17;;;12.80;99.90;;;;;;5092589;28;20262;-66
2020/12/16 12:15:04;;;;;;;9.47;7.80;;;12.80;99.90;;;;;;5093972;28;20188;-66
2020/12/16 12:17:30;;;;;;;10.43;8.17;;;12.80;99.90;;;;;;5094112;28;20269;-65
2020/12/16 12:19:55;;;;;;;9.00;7.37;;;12.80;99.90;;;;;;5093602;28;20171;-66
2020/12/16 12:22:21;;;;;;;8.60;6.20;;;12.80;99.90;;;;;;5093469;28;20182;-65
2020/12/16 12:24:47;;;;;;;7.20;5.20;;;12.80;99.90;;;;;;5093634;28;20591;-65
2020/12/16 12:27:12;;;;;;;8.37;5.50;;;12.80;99.90;;;;;;5092009;28;20640;-65
2020/12/16 12:29:38;;;;;;;6.13;5.37;;;12.80;99.90;;;;;;5093518;28;20258;-65
2020/12/16 12:32:03;;;;;;;8.90;6.03;;;12.80;99.90;;;;;;5092395;28;20178;-66
2020/12/16 12:34:29;;;;;;;7.63;6.73;;;12.90;99.90;;;;;;5093675;28;20195;-65
2020/12/16 12:36:55;;;;;;;8.97;6.57;;;12.90;99.90;;;;;;5092434;28;20648;-69
2020/12/16 12:39:20;;;;;;;6.70;5.97;;;12.80;99.90;;;;;;5094094;28;20528;-69
2020/12/16 12:41:46;;;;;;;7.50;6.03;;;12.80;99.90;;;;;;5094457;28;20586;-68
2020/12/16 12:44:12;;;;;;;7.80;6.57;;;12.80;99.90;;;;;;5094276;28;20196;-68
2020/12/16 12:46:38;;;;;;;8.67;5.50;;;12.80;99.90;;;;;;5093352;28;20170;-68
2020/12/16 12:49:04;;;;;;;11.73;5.47;;;13.30;99.90;;;;;;5093745;28;20160;-69
2020/12/16 12:51:30;;;;;;;7.10;5.00;;;13.70;99.90;;;;;;5093496;28;20404;-69
2020/12/16 12:53:59;;;;;;;5.73;5.23;;;14.10;99.90;;;;;;5093331;28;20512;-68
2020/12/16 12:56:25;;;;;;;5.13;4.63;;;14.30;67.10;;;;;;5093686;28;20640;-69
2020/12/16 12:58:51;;;;;;;5.10;4.60;;;14.20;54.10;;;;;;5093576;28;20423;-69